Latest Coastal Weather Observations for Onslow Airport

IDW60701

Issued at 11:15 pm WST Saturday 25 October 2014 (issued every 10 minutes, with the page automatically refreshed every 10 minutes)

About coastal observations | Map of coastal stations | Coastal observations for WA | Marine services | Other Formats
Station Details ID: 005017 Name: ONSLOW AIRPORT Lat: -21.67 Lon: 115.11 Height: 10.5 m
Data from the previous 72 hours. | See also: Recent months at Onslow Airport
Date/Time
WST
Temp

°C
Wind Pressure Rain
since 9am
mm
Weather Cloud Vis
km
Sea
Height
m
Swell
Dir
 
Speed
knots
Gust
knots
hPa Trend Height
m
Period
s
Dir
25/11:00pm 24.1 SW 13 15 1015.4 - 0.0 - - - - - - -
25/10:30pm 24.5 SW 13 16 1015.7 - 0.0 - - - - - - -
25/10:00pm 24.9 SW 13 16 1015.7 - 0.0 - - - - - - -
25/09:30pm 25.5 SW 14 17 1015.8 - 0.0 - - - - - - -
25/09:00pm 26.0 SW 13 16 1015.7 - 0.0 - - - - - - -
25/08:30pm 26.7 SW 14 17 1015.6 - 0.0 - - - - - - -
25/08:00pm 27.4 SW 14 18 1015.6 - 0.0 - - - - - - -
25/07:30pm 28.5 SW 16 20 1015.5 - 0.0 - - - - - - -
25/07:00pm 29.2 WSW 15 19 1015.1 - 0.0 - - - - - - -
25/06:30pm 26.8 W 11 15 1014.8 - 0.0 - - - - - - -
25/06:00pm 27.0 W 13 19 1014.6 - 0.0 - - - - - - -
25/05:30pm 27.6 W 15 19 1014.5 - 0.0 - - - - - - -
25/05:16pm 29.4 W 12 19 1014.3 - 0.0 - - - - - - -
25/05:00pm 34.5 SW 14 18 1014.2 - 0.0 - - - - - - -
25/04:30pm 35.7 SSW 14 21 1014.1 - 0.0 - - - - - - -
25/04:00pm 35.8 SSW 15 19 1014.1 - 0.0 - - - - - - -
25/03:30pm 36.3 SSW 15 19 1014.1 - 0.0 - - - - - - -
25/03:00pm 35.7 SW 16 21 1014.3 - 0.0 - - - - - - -
25/02:30pm 36.1 SSW 13 19 1014.5 - 0.0 - - - - - - -
25/02:00pm 35.9 SW 13 22 1014.8 - 0.0 - - - - - - -
25/01:30pm 35.3 SSW 12 17 1015.0 - 0.0 - - - - - - -
25/01:00pm 35.2 SSW 11 14 1015.3 - 0.0 - - - - - - -
25/12:30pm 34.5 SSW 12 17 1015.7 - 0.0 - - - - - - -
25/12:00pm 33.7 SSW 13 17 1016.2 - 0.0 - - - - - - -
25/11:30am 33.8 SSW 11 15 1016.4 - 0.0 - - - - - - -
25/11:00am 32.6 SSW 12 15 1016.7 - 0.0 - - - - - - -
25/10:30am 31.6 SSW 14 17 1017.1 - 0.0 - - - - - - -
25/10:00am 29.2 SSW 13 16 1017.1 - 0.0 - - - - - - -
25/09:30am 27.9 SSW 15 21 1017.1 - 0.0 - - - - - - -
25/09:00am 26.5 SSW 14 18 1017.2 - 0.0 - - - - - - -
25/08:30am 24.8 SSW 16 19 1017.2 - 0.0 - - - - - - -
25/08:00am 23.6 SSW 16 19 1017.1 - 0.0 - - - - - - -
25/07:30am 22.4 SSW 17 22 1016.8 - 0.0 - - - - - - -
25/07:00am 21.3 SSW 15 21 1016.5 - 0.0 - - - - - - -
25/06:30am 20.2 SSW 13 17 1016.2 - 0.0 - - - - - - -
25/06:00am 19.9 SSW 13 16 1016.0 - 0.0 - - - - - - -
25/05:30am 19.8 SSW 12 15 1015.7 - 0.0 - - - - - - -
25/05:00am 19.8 SSW 12 15 1015.4 - 0.0 - - - - - - -
25/04:30am 20.2 SSW 11 15 1015.0 - 0.0 - - - - - - -
25/04:00am 20.5 SSW 11 14 1014.6 - 0.0 - - - - - - -
25/03:30am 20.9 SSW 11 14 1014.6 - 0.0 - - - - - - -
25/03:00am 20.9 SSW 10 13 1014.3 - 0.0 - - - - - - -
25/02:30am 21.3 SSW 10 13 1013.9 - 0.0 - - - - - - -
25/02:00am 21.5 SSW 12 15 1014.0 - 0.0 - - - - - - -
25/01:30am 21.9 SSW 12 15 1014.0 - 0.0 - - - - - - -
25/01:00am 22.3 SSW 14 18 1013.8 - 0.0 - - - - - - -
25/12:30am 22.6 SW 15 19 1014.0 - 0.0 - - - - - - -
25/12:00am 22.8 SW 14 18 1014.1 - 0.0 - - - - - - -
 
Date/Time
WST
Temp

°C
Wind Pressure Rain
since 9am
mm
Weather Cloud Vis
km
Sea
Height
m
Swell
Dir
 
Speed
knots
Gust
knots
hPa Trend Height
m
Period
s
Dir
24/11:30pm 23.1 SW 13 17 1014.3 - 0.0 - - - - - - -
24/11:00pm 23.6 SW 13 16 1014.4 - 0.0 - - - - - - -
24/10:30pm 24.1 SW 13 17 1014.6 - 0.0 - - - - - - -
24/10:00pm 24.7 SW 13 16 1014.5 - 0.0 - - - - - - -
24/09:30pm 25.3 SW 12 16 1014.3 - 0.0 - - - - - - -
24/09:00pm 26.0 SW 14 17 1014.2 - 0.0 - - - - - - -
24/08:30pm 26.6 SW 14 18 1014.0 - 0.0 - - - - - - -
24/08:00pm 27.1 SW 14 17 1013.6 - 0.0 - - - - - - -
24/07:30pm 28.2 SW 16 19 1013.1 - 0.0 - - - - - - -
24/07:00pm 25.5 W 11 13 1012.7 - 0.0 - - - - - - -
24/06:30pm 25.5 W 13 16 1012.4 - 0.0 - - - - - - -
24/06:00pm 26.4 W 14 18 1012.0 - 0.0 - - - - - - -
24/05:30pm 26.7 W 15 20 1011.6 - 0.0 - - - - - - -
24/05:00pm 27.1 W 18 22 1011.3 - 0.0 - - - - - - -
24/04:30pm 27.9 W 18 23 1011.2 - 0.0 - - - - - - -
24/04:00pm 29.3 W 19 24 1011.3 - 0.0 - - - - - - -
24/03:30pm 32.1 W 18 23 1011.2 - 0.0 - - - - - - -
24/03:00pm 32.4 W 18 22 1011.5 - 0.0 - - - - - - -
24/02:30pm 31.6 WNW 16 21 1011.6 - 0.0 - - - - - - -
24/02:00pm 31.5 WNW 14 18 1011.9 - 0.0 - - - - - - -
24/01:30pm 30.4 WNW 15 17 1012.2 - 0.0 - - - - - - -
24/01:00pm 32.2 WNW 14 17 1012.3 - 0.0 - - - - - - -
24/12:30pm 34.4 SSW 10 15 1012.6 - 0.0 - - - - - - -
24/12:00pm 34.0 SW 10 17 1013.0 - 0.0 - - - - - - -
24/11:30am 32.9 SSW 10 13 1013.4 - 0.0 - - - - - - -
24/11:00am 31.9 SSW 9 14 1013.8 - 0.0 - - - - - - -
24/10:30am 30.9 SSW 11 13 1014.2 - 0.0 - - - - - - -
24/10:00am 29.5 SSW 11 14 1014.4 - 0.0 - - - - - - -
24/09:30am 27.8 SSW 11 15 1014.6 - 0.0 - - - - - - -
24/09:00am 26.1 S 11 14 1014.7 - 0.0 - - - - - - -
24/08:30am 24.6 SSW 13 16 1014.5 - 0.0 - - - - - - -
24/08:00am 23.0 SSW 14 17 1014.4 - 0.0 - - - - - - -
24/07:30am 21.7 SSW 14 17 1014.2 - 0.0 - - - - - - -
24/07:00am 20.3 SSW 12 16 1014.2 - 0.0 - - - - - - -
24/06:30am 19.4 SSW 12 16 1013.9 - 0.0 - - - - - - -
24/06:00am 18.9 SSW 13 17 1013.5 - 0.0 - - - - - - -
24/05:30am 18.8 SSW 14 18 1013.3 - 0.0 - - - - - - -
24/05:00am 19.0 SSW 14 18 1013.3 - 0.0 - - - - - - -
24/04:30am 19.2 SSW 15 18 1013.3 - 0.0 - - - - - - -
24/04:00am 19.5 SSW 16 20 1013.1 - 0.0 - - - - - - -
24/03:30am 19.7 SSW 14 19 1013.1 - 0.0 - - - - - - -
24/03:00am 20.0 SSW 15 19 1013.0 - 0.0 - - - - - - -
24/02:30am 20.3 SSW 14 20 1013.2 - 0.0 - - - - - - -
24/02:00am 20.6 SSW 15 19 1013.4 - 0.0 - - - - - - -
24/01:30am 20.9 SW 14 19 1013.6 - 0.0 - - - - - - -
24/01:00am 21.1 SW 15 18 1013.9 - 0.0 - - - - - - -
24/12:30am 21.4 SW 15 19 1014.0 - 0.0 - - - - - - -
24/12:00am 21.7 SW 15 19 1014.2 - 0.0 - - - - - - -
 
Date/Time
WST
Temp

°C
Wind Pressure Rain
since 9am
mm
Weather Cloud Vis
km
Sea
Height
m
Swell
Dir
 
Speed
knots
Gust
knots
hPa Trend Height
m
Period
s
Dir
23/11:30pm 21.9 SW 15 19 1014.4 - 0.0 - - - - - - -
23/11:00pm 22.3 SW 15 19 1014.5 - 0.0 - - - - - - -
23/10:30pm 22.6 SW 15 19 1014.6 - 0.0 - - - - - - -
23/10:00pm 23.2 SW 17 23 1014.5 - 0.0 - - - - - - -
23/09:30pm 23.8 SW 17 21 1014.4 - 0.0 - - - - - - -
23/09:00pm 24.4 SW 17 21 1014.3 - 0.0 - - - - - - -
23/08:30pm 25.0 SW 18 23 1014.1 - 0.0 - - - - - - -
23/08:00pm 25.8 SW 18 22 1013.9 - 0.0 - - - - - - -
23/07:30pm 26.8 SW 15 19 1013.7 - 0.0 - - - - - - -
23/07:00pm 27.8 WSW 18 23 1013.3 - 0.0 - - - - - - -
23/06:30pm 28.9 WSW 17 22 1012.8 - 0.0 - - - - - - -
23/06:00pm 27.3 W 16 20 1012.5 - 0.0 - - - - - - -
23/05:30pm 27.0 W 19 23 1012.2 - 0.0 - - - - - - -
23/05:00pm 27.1 W 18 23 1011.9 - 0.0 - - - - - - -
23/04:30pm 29.6 W 17 23 1011.9 - 0.0 - - - - - - -
23/04:00pm 30.8 W 19 25 1011.9 - 0.0 - - - - - - -
23/03:30pm 31.6 W 18 23 1012.0 - 0.0 - - - - - - -
23/03:00pm 31.7 W 14 19 1012.1 - 0.0 - - - - - - -
23/02:30pm 33.0 W 13 19 1012.3 - 0.0 - - - - - - -
23/02:00pm 35.2 SW 12 18 1012.4 - 0.0 - - - - - - -
23/01:30pm 34.3 SW 10 15 1012.8 - 0.0 - - - - - - -
23/01:00pm 33.9 SW 11 16 1013.1 - 0.0 - - - - - - -
23/12:30pm 33.8 SW 11 15 1013.6 - 0.0 - - - - - - -
23/12:00pm 33.2 SSW 11 15 1013.9 - 0.0 - - - - - - -
23/11:30am 32.0 SSW 12 17 1014.2 - 0.0 - - - - - - -
23/11:00am 30.9 S 11 17 1014.7 - 0.0 - - - - - - -
23/10:30am 30.2 S 14 19 1015.0 - 0.0 - - - - - - -
23/10:00am 28.8 S 14 18 1015.3 - 0.0 - - - - - - -
23/09:30am 27.5 S 15 20 1015.5 - 0.0 - - - - - - -
23/09:00am 26.7 S 17 22 1015.7 - 0.0 - - - - - - -
23/08:30am 25.7 S 18 22 1015.7 - 0.0 - - - - - - -
23/08:00am 24.1 S 19 24 1015.6 - 0.0 - - - - - - -
23/07:30am 22.9 S 19 24 1015.4 - 0.0 - - - - - - -
23/07:00am 22.0 S 16 21 1015.6 - 0.0 - - - - - - -
23/06:30am 21.0 S 15 20 1015.3 - 0.0 - - - - - - -
23/06:00am 20.6 SSW 16 21 1015.0 - 0.0 - - - - - - -
23/05:30am 20.7 SSW 16 21 1014.9 - 0.0 - - - - - - -
23/05:00am 20.9 SSW 15 19 1014.7 - 0.0 - - - - - - -
23/04:30am 21.1 SSW 15 20 1014.5 - 0.0 - - - - - - -
23/04:00am 21.3 SSW 13 18 1014.4 - 0.0 - - - - - - -
23/03:30am 21.5 SSW 14 18 1014.5 - 0.0 - - - - - - -
23/03:00am 21.7 SSW 15 18 1014.5 - 0.0 - - - - - - -
23/02:30am 22.1 SSW 14 19 1014.7 - 0.0 - - - - - - -
23/02:00am 22.3 SSW 15 19 1014.7 - 0.0 - - - - - - -
23/01:30am 22.6 SSW 15 18 1015.0 - 0.0 - - - - - - -
23/01:00am 22.9 SSW 14 18 1015.1 - 0.0 - - - - - - -
23/12:30am 23.3 SSW 13 17 1015.1 - 0.0 - - - - - - -
23/12:00am 23.6 SW 12 16 1015.1 - 0.0 - - - - - - -
 
Date/Time
WST
Temp

°C
Wind Pressure Rain
since 9am
mm
Weather Cloud Vis
km
Sea
Height
m
Swell
Dir
 
Speed
knots
Gust
knots
hPa Trend Height
m
Period
s
Dir
22/11:30pm 24.0 SSW 14 17 1015.3 - 0.0 - - - - - - -

Other Formats:

Comma delimited format used in spreadsheet applications
http://www.bom.gov.au/fwo/IDW60701/IDW60701.95305.axf

JavaScript Object Notation format (JSON) in row-major order
http://www.bom.gov.au/fwo/IDW60701/IDW60701.95305.json